Don Miguel Hidalgo Y Costilla International Airport
MMGL : now visible

Airfield :











YOU CAN JOIN US ON...

 
LOGIN :

Register | Disclaimer

   EN    FR    IT 

 









Legend :    VFR   Marginal VFR   IFR   Intensive IFR   Very Intensive IFR
Visi :
Ceiling :
>= 8 km
>= 3000ft
5 to 8 km
1000 to 3000 ft
1500m to 5 km
500 to 1000 ft
800 to 1500m
200 to 500 ft
< 800m
< 200 ft
Symbols :   Thunderstorms  Fog  Heavy snow  Heavy precipitations  Wind > 20 kt






- Airport Elevation : 5016 ft
- IATA code : GDL


MMGL - Don Miguel Hidalgo Y Costilla International

CURRENT METAR :
  • 172151Z 00000KT 8SM BKN030TCU 24/06 A3014 RMK 8/200

EXPIRED METARs :
  • 172045Z 34004KT 8SM BKN030TCU 24/07 A3016 RMK SLP106 57028 913 8/200
  • 171952Z 33005KT 8SM FEW030 SCT300 24/08 A3019 RMK 8/101

TAF TAF MMGL
Valid from the 17 at 18:00 until the 19 at 00:00 UTC


171651Z 1718/1824 09005KT P6SM BKN300 TX27/1722Z TN12/1812Z
FM172100 24010KT P6SM SCT025 BKN250
FM180300 00000KT P6SM BKN250
TEMPO 1812/1816 3SM BR HZ
FM182100 26010KT P6SM SCT025 BKN250



MET'MAP, your aeronautical weather chart ! - Copyright ORBIFLY December 2007 - Disclaimer

ORBIFLY MET'MAP TEAM :

Programming & Development : Alexandra Zaïnal
Concept & original design : Baudouin d'Aumeries
Assistance for programming : Marc-Olivier Méhu
Technical & hardware support : Manuel Goepfert

Contact : metmap@orbifly.com




SOURCES & CREDITS :

   NOAA       Earth
Advisory